sensor_id;sensor_type;location;lat;lon;timestamp;P1;durP1;ratioP1;P2;durP2;ratioP2
20855;SDS011;63058;49.424;8.420;2022-08-25T00:01:20;1.48;;;1.17;;
20855;SDS011;63058;49.424;8.420;2022-08-25T00:03:51;1.90;;;1.30;;
20855;SDS011;63058;49.424;8.420;2022-08-25T00:06:18;1.63;;;1.17;;
20855;SDS011;63058;49.424;8.420;2022-08-25T00:08:43;1.48;;;1.27;;
20855;SDS011;63058;49.424;8.420;2022-08-25T00:11:14;1.30;;;1.20;;
20855;SDS011;63058;49.424;8.420;2022-08-25T00:13:43;1.50;;;1.17;;
20855;SDS011;63058;49.424;8.420;2022-08-25T00:16:14;1.45;;;1.35;;
20855;SDS011;63058;49.424;8.420;2022-08-25T00:18:43;1.30;;;1.20;;
20855;SDS011;63058;49.424;8.420;2022-08-25T00:21:12;3.13;;;1.30;;
20855;SDS011;63058;49.424;8.420;2022-08-25T00:23:39;1.35;;;1.20;;
20855;SDS011;63058;49.424;8.420;2022-08-25T00:26:06;1.52;;;1.42;;
20855;SDS011;63058;49.424;8.420;2022-08-25T00:28:35;2.45;;;1.33;;
20855;SDS011;63058;49.424;8.420;2022-08-25T00:31:02;1.17;;;1.08;;
20855;SDS011;63058;49.424;8.420;2022-08-25T00:33:28;1.25;;;1.08;;
20855;SDS011;63058;49.424;8.420;2022-08-25T00:35:56;1.33;;;1.13;;
20855;SDS011;63058;49.424;8.420;2022-08-25T00:38:22;1.38;;;1.23;;
20855;SDS011;63058;49.424;8.420;2022-08-25T00:40:48;1.45;;;1.15;;
20855;SDS011;63058;49.424;8.420;2022-08-25T00:43:33;1.13;;;1.02;;
20855;SDS011;63058;49.424;8.420;2022-08-25T00:46:11;1.67;;;1.38;;
20855;SDS011;63058;49.424;8.420;2022-08-25T00:48:38;1.38;;;1.23;;
20855;SDS011;63058;49.424;8.420;2022-08-25T00:51:08;1.50;;;1.40;;
20855;SDS011;63058;49.424;8.420;2022-08-25T00:53:41;1.25;;;1.15;;
20855;SDS011;63058;49.424;8.420;2022-08-25T00:56:10;2.22;;;1.27;;
20855;SDS011;63058;49.424;8.420;2022-08-25T00:58:39;1.17;;;1.08;;
20855;SDS011;63058;49.424;8.420;2022-08-25T01:01:06;1.08;;;0.93;;
20855;SDS011;63058;49.424;8.420;2022-08-25T01:03:32;1.27;;;1.17;;
20855;SDS011;63058;49.424;8.420;2022-08-25T01:05:58;1.27;;;1.17;;
20855;SDS011;63058;49.424;8.420;2022-08-25T01:08:28;2.60;;;1.40;;
20855;SDS011;63058;49.424;8.420;2022-08-25T01:10:57;1.75;;;1.15;;
20855;SDS011;63058;49.424;8.420;2022-08-25T01:13:28;1.17;;;1.08;;
20855;SDS011;63058;49.424;8.420;2022-08-25T01:16:04;1.20;;;1.08;;
20855;SDS011;63058;49.424;8.420;2022-08-25T01:18:40;1.33;;;1.23;;
20855;SDS011;63058;49.424;8.420;2022-08-25T01:21:09;1.35;;;1.20;;
20855;SDS011;63058;49.424;8.420;2022-08-25T01:23:36;1.20;;;1.10;;
20855;SDS011;63058;49.424;8.420;2022-08-25T01:26:08;1.38;;;1.27;;
20855;SDS011;63058;49.424;8.420;2022-08-25T01:28:34;1.05;;;0.98;;
20855;SDS011;63058;49.424;8.420;2022-08-25T01:31:02;1.70;;;1.20;;
20855;SDS011;63058;49.424;8.420;2022-08-25T01:33:30;1.63;;;1.25;;
20855;SDS011;63058;49.424;8.420;2022-08-25T01:35:55;2.05;;;1.40;;
20855;SDS011;63058;49.424;8.420;2022-08-25T01:38:22;1.52;;;1.17;;
20855;SDS011;63058;49.424;8.420;2022-08-25T01:40:48;2.63;;;1.45;;
20855;SDS011;63058;49.424;8.420;2022-08-25T01:45:41;1.30;;;1.20;;
20855;SDS011;63058;49.424;8.420;2022-08-25T01:48:12;1.38;;;1.23;;
20855;SDS011;63058;49.424;8.420;2022-08-25T01:50:39;1.52;;;1.30;;
20855;SDS011;63058;49.424;8.420;2022-08-25T01:53:07;1.63;;;1.23;;
20855;SDS011;63058;49.424;8.420;2022-08-25T01:55:42;2.05;;;1.33;;
20855;SDS011;63058;49.424;8.420;2022-08-25T01:58:30;1.85;;;1.20;;
20855;SDS011;63058;49.424;8.420;2022-08-25T02:01:00;1.85;;;1.23;;
20855;SDS011;63058;49.424;8.420;2022-08-25T02:03:27;1.75;;;1.35;;
20855;SDS011;63058;49.424;8.420;2022-08-25T02:05:54;1.70;;;1.30;;
20855;SDS011;63058;49.424;8.420;2022-08-25T02:08:22;2.10;;;1.20;;
20855;SDS011;63058;49.424;8.420;2022-08-25T02:10:49;1.63;;;1.13;;
20855;SDS011;63058;49.424;8.420;2022-08-25T02:13:16;1.70;;;1.13;;
20855;SDS011;63058;49.424;8.420;2022-08-25T02:15:46;2.03;;;1.40;;
20855;SDS011;63058;49.424;8.420;2022-08-25T02:18:15;1.77;;;1.33;;
20855;SDS011;63058;49.424;8.420;2022-08-25T02:20:41;1.42;;;1.13;;
20855;SDS011;63058;49.424;8.420;2022-08-25T02:23:07;1.95;;;1.10;;
20855;SDS011;63058;49.424;8.420;2022-08-25T02:25:33;1.52;;;1.15;;
20855;SDS011;63058;49.424;8.420;2022-08-25T02:27:58;1.70;;;1.40;;
20855;SDS011;63058;49.424;8.420;2022-08-25T02:30:25;2.47;;;1.40;;
20855;SDS011;63058;49.424;8.420;2022-08-25T02:32:51;1.55;;;1.17;;
20855;SDS011;63058;49.424;8.420;2022-08-25T02:35:17;1.27;;;1.10;;
20855;SDS011;63058;49.424;8.420;2022-08-25T02:37:43;2.65;;;1.40;;
20855;SDS011;63058;49.424;8.420;2022-08-25T02:40:09;1.85;;;1.13;;
20855;SDS011;63058;49.424;8.420;2022-08-25T02:42:35;1.85;;;1.33;;
20855;SDS011;63058;49.424;8.420;2022-08-25T02:45:05;1.88;;;1.20;;
20855;SDS011;63058;49.424;8.420;2022-08-25T02:47:31;1.75;;;1.40;;
20855;SDS011;63058;49.424;8.420;2022-08-25T02:49:57;1.67;;;1.25;;
20855;SDS011;63058;49.424;8.420;2022-08-25T02:52:23;2.72;;;1.20;;
20855;SDS011;63058;49.424;8.420;2022-08-25T02:54:49;2.13;;;1.30;;
20855;SDS011;63058;49.424;8.420;2022-08-25T02:57:17;2.42;;;1.48;;
20855;SDS011;63058;49.424;8.420;2022-08-25T02:59:44;1.70;;;1.25;;
20855;SDS011;63058;49.424;8.420;2022-08-25T03:02:12;2.13;;;1.20;;
20855;SDS011;63058;49.424;8.420;2022-08-25T03:04:39;2.17;;;1.40;;
20855;SDS011;63058;49.424;8.420;2022-08-25T03:07:05;1.20;;;1.02;;
20855;SDS011;63058;49.424;8.420;2022-08-25T03:09:31;1.48;;;1.30;;
20855;SDS011;63058;49.424;8.420;2022-08-25T03:11:58;1.85;;;1.25;;
20855;SDS011;63058;49.424;8.420;2022-08-25T03:14:24;1.70;;;1.40;;
20855;SDS011;63058;49.424;8.420;2022-08-25T03:16:49;2.60;;;1.40;;
20855;SDS011;63058;49.424;8.420;2022-08-25T03:19:15;4.18;;;1.50;;
20855;SDS011;63058;49.424;8.420;2022-08-25T03:21:42;1.45;;;1.33;;
20855;SDS011;63058;49.424;8.420;2022-08-25T03:24:12;1.40;;;1.23;;
20855;SDS011;63058;49.424;8.420;2022-08-25T03:26:38;1.92;;;1.38;;
20855;SDS011;63058;49.424;8.420;2022-08-25T03:29:23;1.85;;;1.20;;
20855;SDS011;63058;49.424;8.420;2022-08-25T03:31:54;2.00;;;1.08;;
20855;SDS011;63058;49.424;8.420;2022-08-25T03:34:22;1.40;;;1.23;;
20855;SDS011;63058;49.424;8.420;2022-08-25T03:36:49;1.58;;;1.08;;
20855;SDS011;63058;49.424;8.420;2022-08-25T03:39:16;1.98;;;1.30;;
20855;SDS011;63058;49.424;8.420;2022-08-25T03:41:43;1.30;;;1.20;;
20855;SDS011;63058;49.424;8.420;2022-08-25T03:44:11;1.38;;;1.15;;
20855;SDS011;63058;49.424;8.420;2022-08-25T03:46:39;2.03;;;1.10;;
20855;SDS011;63058;49.424;8.420;2022-08-25T03:49:08;1.40;;;1.25;;
20855;SDS011;63058;49.424;8.420;2022-08-25T03:51:40;3.25;;;1.30;;
20855;SDS011;63058;49.424;8.420;2022-08-25T03:54:11;2.83;;;1.33;;
20855;SDS011;63058;49.424;8.420;2022-08-25T03:56:39;1.90;;;1.23;;
20855;SDS011;63058;49.424;8.420;2022-08-25T03:59:05;1.65;;;1.40;;
20855;SDS011;63058;49.424;8.420;2022-08-25T04:01:36;1.30;;;1.10;;
20855;SDS011;63058;49.424;8.420;2022-08-25T04:04:03;2.90;;;1.40;;
20855;SDS011;63058;49.424;8.420;2022-08-25T04:06:31;2.33;;;1.40;;
20855;SDS011;63058;49.424;8.420;2022-08-25T04:08:59;1.95;;;1.33;;
20855;SDS011;63058;49.424;8.420;2022-08-25T04:11:25;1.33;;;1.20;;
20855;SDS011;63058;49.424;8.420;2022-08-25T04:13:52;1.55;;;1.30;;
20855;SDS011;63058;49.424;8.420;2022-08-25T04:16:26;2.33;;;1.40;;
20855;SDS011;63058;49.424;8.420;2022-08-25T04:18:55;2.15;;;1.38;;
20855;SDS011;63058;49.424;8.420;2022-08-25T04:21:24;2.92;;;1.20;;
20855;SDS011;63058;49.424;8.420;2022-08-25T04:23:51;1.75;;;1.30;;
20855;SDS011;63058;49.424;8.420;2022-08-25T04:26:23;2.55;;;1.20;;
20855;SDS011;63058;49.424;8.420;2022-08-25T04:29:04;2.85;;;1.38;;
20855;SDS011;63058;49.424;8.420;2022-08-25T04:31:31;1.10;;;1.00;;
20855;SDS011;63058;49.424;8.420;2022-08-25T04:34:01;2.83;;;1.30;;
20855;SDS011;63058;49.424;8.420;2022-08-25T04:36:28;1.55;;;1.33;;
20855;SDS011;63058;49.424;8.420;2022-08-25T04:38:56;2.30;;;1.52;;
20855;SDS011;63058;49.424;8.420;2022-08-25T04:41:23;1.83;;;1.40;;
20855;SDS011;63058;49.424;8.420;2022-08-25T04:43:50;3.25;;;1.23;;
20855;SDS011;63058;49.424;8.420;2022-08-25T04:46:22;1.40;;;1.27;;
20855;SDS011;63058;49.424;8.420;2022-08-25T04:48:50;1.35;;;1.15;;
20855;SDS011;63058;49.424;8.420;2022-08-25T04:51:27;2.97;;;1.38;;
20855;SDS011;63058;49.424;8.420;2022-08-25T04:53:57;1.45;;;0.95;;
20855;SDS011;63058;49.424;8.420;2022-08-25T04:56:29;1.92;;;1.30;;
20855;SDS011;63058;49.424;8.420;2022-08-25T04:59:02;2.08;;;1.40;;
20855;SDS011;63058;49.424;8.420;2022-08-25T05:01:31;2.47;;;1.20;;
20855;SDS011;63058;49.424;8.420;2022-08-25T05:03:58;1.80;;;1.38;;
20855;SDS011;63058;49.424;8.420;2022-08-25T05:06:25;1.50;;;1.13;;
20855;SDS011;63058;49.424;8.420;2022-08-25T05:08:53;2.00;;;1.20;;
20855;SDS011;63058;49.424;8.420;2022-08-25T05:11:25;1.83;;;1.27;;
20855;SDS011;63058;49.424;8.420;2022-08-25T05:13:52;1.42;;;1.25;;
20855;SDS011;63058;49.424;8.420;2022-08-25T05:16:20;2.75;;;1.10;;
20855;SDS011;63058;49.424;8.420;2022-08-25T05:18:46;3.03;;;1.45;;
20855;SDS011;63058;49.424;8.420;2022-08-25T05:21:16;2.35;;;1.35;;
20855;SDS011;63058;49.424;8.420;2022-08-25T05:23:48;1.35;;;1.25;;
20855;SDS011;63058;49.424;8.420;2022-08-25T05:26:24;1.67;;;1.30;;
20855;SDS011;63058;49.424;8.420;2022-08-25T05:28:56;2.50;;;1.52;;
20855;SDS011;63058;49.424;8.420;2022-08-25T05:31:24;2.05;;;1.45;;
20855;SDS011;63058;49.424;8.420;2022-08-25T05:33:51;3.58;;;1.27;;
20855;SDS011;63058;49.424;8.420;2022-08-25T05:36:18;1.83;;;1.30;;
20855;SDS011;63058;49.424;8.420;2022-08-25T05:38:48;1.50;;;1.23;;
20855;SDS011;63058;49.424;8.420;2022-08-25T05:41:19;1.73;;;1.33;;
20855;SDS011;63058;49.424;8.420;2022-08-25T05:43:49;1.88;;;1.30;;
20855;SDS011;63058;49.424;8.420;2022-08-25T05:46:18;2.83;;;1.20;;
20855;SDS011;63058;49.424;8.420;2022-08-25T05:48:46;2.95;;;1.30;;
20855;SDS011;63058;49.424;8.420;2022-08-25T05:51:14;2.00;;;1.40;;
20855;SDS011;63058;49.424;8.420;2022-08-25T05:53:43;1.80;;;1.20;;
20855;SDS011;63058;49.424;8.420;2022-08-25T05:56:11;2.08;;;1.20;;
20855;SDS011;63058;49.424;8.420;2022-08-25T05:58:38;2.67;;;1.30;;
20855;SDS011;63058;49.424;8.420;2022-08-25T06:01:08;1.40;;;1.17;;
20855;SDS011;63058;49.424;8.420;2022-08-25T06:04:03;2.50;;;1.25;;
20855;SDS011;63058;49.424;8.420;2022-08-25T06:06:31;2.90;;;1.25;;
20855;SDS011;63058;49.424;8.420;2022-08-25T06:09:00;1.50;;;1.30;;
20855;SDS011;63058;49.424;8.420;2022-08-25T06:11:30;2.95;;;1.30;;
20855;SDS011;63058;49.424;8.420;2022-08-25T06:13:56;2.25;;;1.30;;
20855;SDS011;63058;49.424;8.420;2022-08-25T06:16:22;2.15;;;1.10;;
20855;SDS011;63058;49.424;8.420;2022-08-25T06:18:48;3.95;;;1.45;;
20855;SDS011;63058;49.424;8.420;2022-08-25T06:21:36;2.38;;;1.23;;
20855;SDS011;63058;49.424;8.420;2022-08-25T06:24:10;1.35;;;1.23;;
20855;SDS011;63058;49.424;8.420;2022-08-25T06:27:05;3.75;;;1.50;;
20855;SDS011;63058;49.424;8.420;2022-08-25T06:29:56;1.73;;;1.25;;
20855;SDS011;63058;49.424;8.420;2022-08-25T06:32:30;2.35;;;1.40;;
20855;SDS011;63058;49.424;8.420;2022-08-25T06:35:03;3.20;;;1.10;;
20855;SDS011;63058;49.424;8.420;2022-08-25T06:37:33;1.80;;;1.13;;
20855;SDS011;63058;49.424;8.420;2022-08-25T06:39:59;2.08;;;1.13;;
20855;SDS011;63058;49.424;8.420;2022-08-25T06:42:25;3.65;;;1.33;;
20855;SDS011;63058;49.424;8.420;2022-08-25T06:44:51;3.00;;;1.38;;
20855;SDS011;63058;49.424;8.420;2022-08-25T06:47:16;2.30;;;1.42;;
20855;SDS011;63058;49.424;8.420;2022-08-25T06:49:43;3.00;;;1.83;;
20855;SDS011;63058;49.424;8.420;2022-08-25T06:52:09;3.08;;;1.20;;
20855;SDS011;63058;49.424;8.420;2022-08-25T06:54:36;2.15;;;1.50;;
20855;SDS011;63058;49.424;8.420;2022-08-25T06:57:02;2.17;;;1.42;;
20855;SDS011;63058;49.424;8.420;2022-08-25T06:59:30;1.85;;;1.30;;
20855;SDS011;63058;49.424;8.420;2022-08-25T07:01:56;3.05;;;1.35;;
20855;SDS011;63058;49.424;8.420;2022-08-25T07:04:21;4.63;;;1.33;;
20855;SDS011;63058;49.424;8.420;2022-08-25T07:06:47;1.73;;;1.25;;
20855;SDS011;63058;49.424;8.420;2022-08-25T07:09:13;1.92;;;1.38;;
20855;SDS011;63058;49.424;8.420;2022-08-25T07:11:39;2.25;;;1.33;;
20855;SDS011;63058;49.424;8.420;2022-08-25T07:14:07;1.80;;;1.55;;
20855;SDS011;63058;49.424;8.420;2022-08-25T07:16:38;2.72;;;1.50;;
20855;SDS011;63058;49.424;8.420;2022-08-25T07:19:05;3.40;;;1.40;;
20855;SDS011;63058;49.424;8.420;2022-08-25T07:21:32;1.75;;;1.40;;
20855;SDS011;63058;49.424;8.420;2022-08-25T07:23:59;1.80;;;1.42;;
20855;SDS011;63058;49.424;8.420;2022-08-25T07:26:28;4.47;;;1.67;;
20855;SDS011;63058;49.424;8.420;2022-08-25T07:28:56;5.20;;;2.75;;
20855;SDS011;63058;49.424;8.420;2022-08-25T07:31:24;3.38;;;2.00;;
20855;SDS011;63058;49.424;8.420;2022-08-25T07:33:50;4.25;;;1.70;;
20855;SDS011;63058;49.424;8.420;2022-08-25T07:36:34;6.18;;;1.90;;
20855;SDS011;63058;49.424;8.420;2022-08-25T07:39:02;9.27;;;2.00;;
20855;SDS011;63058;49.424;8.420;2022-08-25T07:41:30;5.40;;;2.20;;
20855;SDS011;63058;49.424;8.420;2022-08-25T07:43:58;7.30;;;1.92;;
20855;SDS011;63058;49.424;8.420;2022-08-25T07:46:23;2.20;;;1.90;;
20855;SDS011;63058;49.424;8.420;2022-08-25T07:48:52;4.10;;;2.08;;
20855;SDS011;63058;49.424;8.420;2022-08-25T07:51:18;4.97;;;2.15;;
20855;SDS011;63058;49.424;8.420;2022-08-25T07:53:43;6.38;;;2.20;;
20855;SDS011;63058;49.424;8.420;2022-08-25T07:56:13;4.90;;;2.25;;
20855;SDS011;63058;49.424;8.420;2022-08-25T07:59:01;9.73;;;2.17;;
20855;SDS011;63058;49.424;8.420;2022-08-25T08:01:26;8.15;;;2.67;;
20855;SDS011;63058;49.424;8.420;2022-08-25T08:06:44;12.57;;;2.53;;
20855;SDS011;63058;49.424;8.420;2022-08-25T08:09:25;5.47;;;2.50;;
20855;SDS011;63058;49.424;8.420;2022-08-25T08:11:55;4.82;;;2.70;;
20855;SDS011;63058;49.424;8.420;2022-08-25T08:14:21;4.68;;;2.53;;
20855;SDS011;63058;49.424;8.420;2022-08-25T08:16:54;13.73;;;2.95;;
20855;SDS011;63058;49.424;8.420;2022-08-25T08:19:19;6.00;;;3.10;;
20855;SDS011;63058;49.424;8.420;2022-08-25T08:21:46;10.55;;;3.05;;
20855;SDS011;63058;49.424;8.420;2022-08-25T08:24:21;12.98;;;3.33;;
20855;SDS011;63058;49.424;8.420;2022-08-25T08:26:56;13.18;;;3.40;;
20855;SDS011;63058;49.424;8.420;2022-08-25T08:29:48;21.00;;;3.42;;
20855;SDS011;63058;49.424;8.420;2022-08-25T08:32:26;24.80;;;3.78;;
20855;SDS011;63058;49.424;8.420;2022-08-25T08:34:57;17.23;;;3.75;;
20855;SDS011;63058;49.424;8.420;2022-08-25T08:37:25;32.35;;;6.15;;
20855;SDS011;63058;49.424;8.420;2022-08-25T08:39:53;18.80;;;4.30;;
20855;SDS011;63058;49.424;8.420;2022-08-25T08:56:41;10.15;;;3.40;;
20855;SDS011;63058;49.424;8.420;2022-08-25T08:59:16;11.07;;;2.60;;
20855;SDS011;63058;49.424;8.420;2022-08-25T09:01:54;8.20;;;2.95;;
20855;SDS011;63058;49.424;8.420;2022-08-25T09:04:43;5.32;;;2.75;;
20855;SDS011;63058;49.424;8.420;2022-08-25T09:07:16;10.48;;;2.95;;
20855;SDS011;63058;49.424;8.420;2022-08-25T09:09:45;4.57;;;2.47;;
20855;SDS011;63058;49.424;8.420;2022-08-25T09:13:01;3.70;;;2.60;;
20855;SDS011;63058;49.424;8.420;2022-08-25T09:15:16;4.53;;;2.42;;
20855;SDS011;63058;49.424;8.420;2022-08-25T09:18:16;6.88;;;2.30;;
20855;SDS011;63058;49.424;8.420;2022-08-25T09:23:37;3.55;;;2.33;;
20855;SDS011;63058;49.424;8.420;2022-08-25T09:26:34;4.05;;;2.10;;
20855;SDS011;63058;49.424;8.420;2022-08-25T09:29:19;6.05;;;2.30;;
20855;SDS011;63058;49.424;8.420;2022-08-25T09:31:50;5.20;;;2.20;;
20855;SDS011;63058;49.424;8.420;2022-08-25T09:34:21;3.83;;;2.58;;
20855;SDS011;63058;49.424;8.420;2022-08-25T09:36:48;4.78;;;2.35;;
20855;SDS011;63058;49.424;8.420;2022-08-25T09:39:17;3.83;;;2.63;;
20855;SDS011;63058;49.424;8.420;2022-08-25T09:41:46;3.95;;;2.38;;
20855;SDS011;63058;49.424;8.420;2022-08-25T09:44:27;6.00;;;2.53;;
20855;SDS011;63058;49.424;8.420;2022-08-25T09:47:05;4.78;;;2.63;;
20855;SDS011;63058;49.424;8.420;2022-08-25T09:57:32;4.30;;;2.50;;
20855;SDS011;63058;49.424;8.420;2022-08-25T10:02:51;4.55;;;2.67;;
20855;SDS011;63058;49.424;8.420;2022-08-25T10:05:27;5.55;;;2.53;;
20855;SDS011;63058;49.424;8.420;2022-08-25T10:07:59;4.35;;;2.20;;
20855;SDS011;63058;49.424;8.420;2022-08-25T10:12:52;2.38;;;2.17;;
20855;SDS011;63058;49.424;8.420;2022-08-25T10:15:20;2.47;;;2.28;;
20855;SDS011;63058;49.424;8.420;2022-08-25T10:17:50;2.75;;;2.28;;
20855;SDS011;63058;49.424;8.420;2022-08-25T10:20:35;3.03;;;2.17;;
20855;SDS011;63058;49.424;8.420;2022-08-25T10:23:13;3.28;;;2.53;;
20855;SDS011;63058;49.424;8.420;2022-08-25T10:25:46;3.05;;;2.28;;
20855;SDS011;63058;49.424;8.420;2022-08-25T10:29:21;2.22;;;2.03;;
20855;SDS011;63058;49.424;8.420;2022-08-25T10:31:29;3.25;;;2.20;;
20855;SDS011;63058;49.424;8.420;2022-08-25T10:37:05;2.53;;;2.13;;
20855;SDS011;63058;49.424;8.420;2022-08-25T10:39:44;2.30;;;2.05;;
20855;SDS011;63058;49.424;8.420;2022-08-25T10:45:45;2.67;;;2.05;;
20855;SDS011;63058;49.424;8.420;2022-08-25T10:51:06;2.35;;;2.10;;
20855;SDS011;63058;49.424;8.420;2022-08-25T10:56:14;3.13;;;2.33;;
20855;SDS011;63058;49.424;8.420;2022-08-25T11:10:16;2.35;;;2.00;;
20855;SDS011;63058;49.424;8.420;2022-08-25T11:13:02;2.75;;;1.92;;
20855;SDS011;63058;49.424;8.420;2022-08-25T11:15:36;2.22;;;2.03;;
20855;SDS011;63058;49.424;8.420;2022-08-25T11:18:15;1.98;;;1.77;;
20855;SDS011;63058;49.424;8.420;2022-08-25T11:23:36;2.47;;;1.85;;
20855;SDS011;63058;49.424;8.420;2022-08-25T11:26:10;2.10;;;1.73;;
20855;SDS011;63058;49.424;8.420;2022-08-25T11:29:01;2.35;;;1.88;;
20855;SDS011;63058;49.424;8.420;2022-08-25T11:31:34;2.75;;;1.55;;
20855;SDS011;63058;49.424;8.420;2022-08-25T11:34:07;2.35;;;1.95;;
20855;SDS011;63058;49.424;8.420;2022-08-25T11:36:36;3.55;;;1.92;;
20855;SDS011;63058;49.424;8.420;2022-08-25T11:42:36;2.38;;;1.63;;
20855;SDS011;63058;49.424;8.420;2022-08-25T12:01:13;2.00;;;1.83;;
20855;SDS011;63058;49.424;8.420;2022-08-25T12:04:31;1.88;;;1.73;;
20855;SDS011;63058;49.424;8.420;2022-08-25T12:07:26;2.20;;;1.77;;
20855;SDS011;63058;49.424;8.420;2022-08-25T12:10:07;2.00;;;1.80;;
20855;SDS011;63058;49.424;8.420;2022-08-25T12:26:20;2.08;;;1.88;;
20855;SDS011;63058;49.424;8.420;2022-08-25T12:29:08;1.65;;;1.50;;
20855;SDS011;63058;49.424;8.420;2022-08-25T12:37:20;2.05;;;1.85;;
20855;SDS011;63058;49.424;8.420;2022-08-25T12:40:05;1.45;;;1.35;;
20855;SDS011;63058;49.424;8.420;2022-08-25T12:43:09;3.25;;;1.80;;
20855;SDS011;63058;49.424;8.420;2022-08-25T12:45:41;1.45;;;1.35;;
20855;SDS011;63058;49.424;8.420;2022-08-25T12:54:10;1.73;;;1.63;;
20855;SDS011;63058;49.424;8.420;2022-08-25T12:56:48;1.77;;;1.67;;
20855;SDS011;63058;49.424;8.420;2022-08-25T12:59:35;1.60;;;1.50;;
20855;SDS011;63058;49.424;8.420;2022-08-25T13:16:25;1.50;;;1.40;;
20855;SDS011;63058;49.424;8.420;2022-08-25T13:18:55;1.60;;;1.50;;
20855;SDS011;63058;49.424;8.420;2022-08-25T13:21:35;1.60;;;1.50;;
20855;SDS011;63058;49.424;8.420;2022-08-25T13:27:27;1.65;;;1.35;;
20855;SDS011;63058;49.424;8.420;2022-08-25T13:30:01;1.92;;;1.73;;
20855;SDS011;63058;49.424;8.420;2022-08-25T13:32:52;1.52;;;1.42;;
20855;SDS011;63058;49.424;8.420;2022-08-25T13:35:38;1.40;;;1.30;;
20855;SDS011;63058;49.424;8.420;2022-08-25T13:38:37;1.58;;;1.38;;
20855;SDS011;63058;49.424;8.420;2022-08-25T13:41:03;1.60;;;1.40;;
20855;SDS011;63058;49.424;8.420;2022-08-25T13:43:30;1.63;;;1.52;;
20855;SDS011;63058;49.424;8.420;2022-08-25T13:46:16;1.90;;;1.50;;
20855;SDS011;63058;49.424;8.420;2022-08-25T13:49:10;1.83;;;1.45;;
20855;SDS011;63058;49.424;8.420;2022-08-25T13:51:53;1.70;;;1.60;;
20855;SDS011;63058;49.424;8.420;2022-08-25T13:54:45;1.70;;;1.60;;
20855;SDS011;63058;49.424;8.420;2022-08-25T13:57:18;3.95;;;1.83;;
20855;SDS011;63058;49.424;8.420;2022-08-25T13:59:59;1.48;;;1.38;;
20855;SDS011;63058;49.424;8.420;2022-08-25T14:02:46;1.50;;;1.40;;
20855;SDS011;63058;49.424;8.420;2022-08-25T14:06:03;1.92;;;1.70;;
20855;SDS011;63058;49.424;8.420;2022-08-25T14:08:34;1.48;;;1.38;;
20855;SDS011;63058;49.424;8.420;2022-08-25T14:16:56;1.65;;;1.55;;
20855;SDS011;63058;49.424;8.420;2022-08-25T14:19:34;2.67;;;1.65;;
20855;SDS011;63058;49.424;8.420;2022-08-25T14:22:11;1.77;;;1.60;;
20855;SDS011;63058;49.424;8.420;2022-08-25T14:24:46;2.20;;;1.65;;
20855;SDS011;63058;49.424;8.420;2022-08-25T14:27:19;1.67;;;1.58;;
20855;SDS011;63058;49.424;8.420;2022-08-25T14:30:17;5.47;;;2.80;;
20855;SDS011;63058;49.424;8.420;2022-08-25T14:32:51;10.70;;;2.33;;
20855;SDS011;63058;49.424;8.420;2022-08-25T14:35:48;2.60;;;1.73;;
20855;SDS011;63058;49.424;8.420;2022-08-25T14:41:09;6.22;;;1.90;;
20855;SDS011;63058;49.424;8.420;2022-08-25T14:43:35;3.00;;;1.95;;
20855;SDS011;63058;49.424;8.420;2022-08-25T14:46:12;4.93;;;1.85;;
20855;SDS011;63058;49.424;8.420;2022-08-25T14:48:53;3.17;;;1.73;;
20855;SDS011;63058;49.424;8.420;2022-08-25T14:51:21;2.88;;;1.80;;
20855;SDS011;63058;49.424;8.420;2022-08-25T14:53:51;3.25;;;1.70;;
20855;SDS011;63058;49.424;8.420;2022-08-25T14:56:24;2.00;;;1.50;;
20855;SDS011;63058;49.424;8.420;2022-08-25T14:58:56;2.03;;;1.50;;
20855;SDS011;63058;49.424;8.420;2022-08-25T15:01:22;2.72;;;1.80;;
20855;SDS011;63058;49.424;8.420;2022-08-25T15:03:54;24.60;;;3.65;;
20855;SDS011;63058;49.424;8.420;2022-08-25T15:09:52;1.70;;;1.50;;
20855;SDS011;63058;49.424;8.420;2022-08-25T15:12:24;7.45;;;1.50;;
20855;SDS011;63058;49.424;8.420;2022-08-25T15:15:14;3.05;;;1.52;;
20855;SDS011;63058;49.424;8.420;2022-08-25T15:18:01;5.85;;;1.75;;
20855;SDS011;63058;49.424;8.420;2022-08-25T15:20:45;1.90;;;1.42;;
20855;SDS011;63058;49.424;8.420;2022-08-25T15:23:37;3.20;;;1.58;;
20855;SDS011;63058;49.424;8.420;2022-08-25T15:26:13;2.33;;;1.35;;
20855;SDS011;63058;49.424;8.420;2022-08-25T15:28:49;1.52;;;1.40;;
20855;SDS011;63058;49.424;8.420;2022-08-25T15:31:41;2.67;;;1.58;;
20855;SDS011;63058;49.424;8.420;2022-08-25T15:34:26;3.28;;;1.58;;
20855;SDS011;63058;49.424;8.420;2022-08-25T15:36:58;1.60;;;1.50;;
20855;SDS011;63058;49.424;8.420;2022-08-25T15:39:53;3.90;;;1.38;;
20855;SDS011;63058;49.424;8.420;2022-08-25T15:42:43;1.45;;;1.35;;
20855;SDS011;63058;49.424;8.420;2022-08-25T15:45:17;2.92;;;1.42;;
20855;SDS011;63058;49.424;8.420;2022-08-25T15:47:55;1.58;;;1.48;;
20855;SDS011;63058;49.424;8.420;2022-08-25T15:50:29;2.15;;;1.38;;
20855;SDS011;63058;49.424;8.420;2022-08-25T15:52:57;3.15;;;1.60;;
20855;SDS011;63058;49.424;8.420;2022-08-25T15:55:32;1.80;;;1.60;;
20855;SDS011;63058;49.424;8.420;2022-08-25T15:58:45;1.90;;;1.80;;
20855;SDS011;63058;49.424;8.420;2022-08-25T16:00:54;1.73;;;1.50;;
20855;SDS011;63058;49.424;8.420;2022-08-25T16:03:38;1.95;;;1.75;;
20855;SDS011;63058;49.424;8.420;2022-08-25T16:06:21;1.60;;;1.42;;
20855;SDS011;63058;49.424;8.420;2022-08-25T16:08:54;2.50;;;1.90;;
20855;SDS011;63058;49.424;8.420;2022-08-25T16:11:21;2.67;;;1.38;;
20855;SDS011;63058;49.424;8.420;2022-08-25T16:13:49;1.63;;;1.52;;
20855;SDS011;63058;49.424;8.420;2022-08-25T16:16:26;1.45;;;1.35;;
20855;SDS011;63058;49.424;8.420;2022-08-25T16:19:02;1.98;;;1.45;;
20855;SDS011;63058;49.424;8.420;2022-08-25T16:21:48;1.85;;;1.50;;
20855;SDS011;63058;49.424;8.420;2022-08-25T16:24:16;1.35;;;1.25;;
20855;SDS011;63058;49.424;8.420;2022-08-25T16:26:42;1.70;;;1.60;;
20855;SDS011;63058;49.424;8.420;2022-08-25T16:29:32;2.22;;;1.60;;
20855;SDS011;63058;49.424;8.420;2022-08-25T16:32:05;1.73;;;1.50;;
20855;SDS011;63058;49.424;8.420;2022-08-25T16:34:52;2.05;;;1.42;;
20855;SDS011;63058;49.424;8.420;2022-08-25T16:37:30;1.55;;;1.45;;
20855;SDS011;63058;49.424;8.420;2022-08-25T16:40:00;3.15;;;1.73;;
20855;SDS011;63058;49.424;8.420;2022-08-25T16:42:29;1.73;;;1.63;;
20855;SDS011;63058;49.424;8.420;2022-08-25T16:44:58;1.60;;;1.50;;
20855;SDS011;63058;49.424;8.420;2022-08-25T16:47:34;1.60;;;1.50;;
20855;SDS011;63058;49.424;8.420;2022-08-25T16:50:12;1.60;;;1.50;;
20855;SDS011;63058;49.424;8.420;2022-08-25T16:52:42;1.67;;;1.58;;
20855;SDS011;63058;49.424;8.420;2022-08-25T16:55:32;1.85;;;1.33;;
20855;SDS011;63058;49.424;8.420;2022-08-25T16:58:01;1.27;;;1.17;;
20855;SDS011;63058;49.424;8.420;2022-08-25T17:00:48;1.90;;;1.27;;
20855;SDS011;63058;49.424;8.420;2022-08-25T17:03:14;1.40;;;1.30;;
20855;SDS011;63058;49.424;8.420;2022-08-25T17:06:02;1.52;;;1.42;;
20855;SDS011;63058;49.424;8.420;2022-08-25T17:09:18;1.50;;;1.40;;
20855;SDS011;63058;49.424;8.420;2022-08-25T17:11:45;1.60;;;1.35;;
20855;SDS011;63058;49.424;8.420;2022-08-25T17:14:19;1.50;;;1.40;;
20855;SDS011;63058;49.424;8.420;2022-08-25T17:16:46;2.33;;;1.73;;
20855;SDS011;63058;49.424;8.420;2022-08-25T17:19:40;4.80;;;1.40;;
20855;SDS011;63058;49.424;8.420;2022-08-25T17:22:12;3.83;;;1.80;;
20855;SDS011;63058;49.424;8.420;2022-08-25T17:24:48;3.95;;;1.50;;
20855;SDS011;63058;49.424;8.420;2022-08-25T17:27:17;3.50;;;1.50;;
20855;SDS011;63058;49.424;8.420;2022-08-25T17:30:05;1.65;;;1.50;;
20855;SDS011;63058;49.424;8.420;2022-08-25T17:32:41;2.78;;;1.35;;
20855;SDS011;63058;49.424;8.420;2022-08-25T17:35:41;1.42;;;1.27;;
20855;SDS011;63058;49.424;8.420;2022-08-25T17:38:40;1.90;;;1.30;;
20855;SDS011;63058;49.424;8.420;2022-08-25T17:41:24;1.52;;;1.40;;